createdAt,value
2022-11-24T00:01:08.576Z,45560.09
2022-11-24T00:03:35.579Z,45560.09
2022-11-24T00:06:11.051Z,45566.09
2022-11-24T00:08:39.584Z,45572.09
2022-11-24T00:11:09.495Z,45570.09
2022-11-24T00:13:38.970Z,45578.09
2022-11-24T00:16:15.910Z,45582.09
2022-11-24T00:18:44.024Z,45566.09
2022-11-24T00:21:11.045Z,45572.09
2022-11-24T00:23:38.079Z,45578.09
2022-11-24T00:26:12.760Z,45560.09
2022-11-24T00:28:41.794Z,45564.09
2022-11-24T00:31:18.796Z,45554.09
2022-11-24T00:33:47.207Z,45572.09
2022-11-24T00:36:15.216Z,45602.06
2022-11-24T00:38:41.841Z,45544.13
2022-11-24T00:41:08.771Z,45558.09
2022-11-24T00:43:35.180Z,45582.09
2022-11-24T00:46:01.749Z,45574.09
2022-11-24T00:48:28.296Z,45572.09
2022-11-24T00:50:56.908Z,45570.09
2022-11-24T00:53:23.353Z,45566.09
2022-11-24T00:55:50.428Z,45590.09
2022-11-24T00:58:16.999Z,45558.09
2022-11-24T01:00:43.665Z,45566.09
2022-11-24T01:03:10.212Z,45594.09
2022-11-24T01:05:37.193Z,45576.09
2022-11-24T01:08:03.883Z,45594.09
2022-11-24T01:10:30.571Z,45588.09
2022-11-24T01:12:57.259Z,45592.09
2022-11-24T01:15:23.711Z,45566.09
2022-11-24T01:17:50.114Z,45578.09
2022-11-24T01:20:16.678Z,45580.09
2022-11-24T01:22:43.530Z,45554.09
2022-11-24T01:25:11.236Z,45572.09
2022-11-24T01:27:38.314Z,45590.09
2022-11-24T01:30:06.487Z,45600.06
2022-11-24T01:32:33.907Z,45568.09
2022-11-24T01:35:00.293Z,45576.09
2022-11-24T01:37:26.684Z,45560.09
2022-11-24T01:39:53.126Z,45578.09
2022-11-24T01:42:19.628Z,45588.09
2022-11-24T01:44:48.257Z,45554.09
2022-11-24T01:47:17.864Z,45574.09
2022-11-24T01:49:51.504Z,45556.09
2022-11-24T01:52:27.076Z,45554.09
2022-11-24T01:54:56.205Z,45558.09
2022-11-24T01:57:30.010Z,45576.09
2022-11-24T02:00:01.644Z,45564.09
2022-11-24T02:02:29.879Z,45570.09
2022-11-24T02:05:05.457Z,45538.13
2022-11-24T02:07:32.984Z,45554.09
2022-11-24T02:10:03.450Z,45586.09
2022-11-24T02:12:30.241Z,45566.09
2022-11-24T02:14:58.228Z,45582.09
2022-11-24T02:17:24.648Z,45574.09
2022-11-24T02:19:56.287Z,45582.09
2022-11-24T02:22:51.867Z,45570.09
2022-11-24T02:25:31.224Z,45554.09
2022-11-24T02:28:00.155Z,45584.09
2022-11-24T02:30:26.638Z,45578.09
2022-11-24T02:32:53.844Z,45566.09
2022-11-24T02:35:20.409Z,45560.09
2022-11-24T02:37:46.775Z,45568.09
2022-11-24T02:40:16.479Z,45562.09
2022-11-24T02:42:46.520Z,45592.09
2022-11-24T02:45:15.183Z,45586.09
2022-11-24T02:47:41.601Z,45556.09
2022-11-24T02:50:08.366Z,45556.09
2022-11-24T02:52:34.761Z,45568.09
2022-11-24T02:55:01.150Z,45546.13
2022-11-24T02:57:27.524Z,45578.09
2022-11-24T02:59:54.136Z,45542.13
2022-11-24T03:02:20.787Z,45588.09
2022-11-24T03:04:47.271Z,45574.09
2022-11-24T03:07:14.550Z,45562.09
2022-11-24T03:09:41.038Z,45572.09
2022-11-24T03:12:07.569Z,45582.09
2022-11-24T03:14:34.247Z,45582.09
2022-11-24T03:17:00.816Z,45566.09
2022-11-24T03:19:27.393Z,45566.09
2022-11-24T03:21:53.792Z,45550.13
2022-11-24T03:24:20.267Z,45554.09
2022-11-24T03:26:46.681Z,45566.09
2022-11-24T03:29:13.070Z,45556.09
2022-11-24T03:31:39.561Z,45600.06
2022-11-24T03:34:06.075Z,45572.09
2022-11-24T03:36:32.438Z,45586.09
2022-11-24T03:38:58.823Z,45580.09
2022-11-24T03:41:25.230Z,45594.09
2022-11-24T03:43:52.014Z,45582.09
2022-11-24T03:46:18.831Z,45574.09
2022-11-24T03:48:45.321Z,45574.09
2022-11-24T03:51:11.887Z,45570.09
2022-11-24T03:53:38.466Z,45590.09
2022-11-24T03:56:05.213Z,45558.09
2022-11-24T03:58:31.580Z,45570.09
2022-11-24T04:00:58.133Z,45574.09
2022-11-24T04:03:25.476Z,45570.09
2022-11-24T04:05:52.022Z,45570.09
2022-11-24T04:08:19.015Z,45590.09
2022-11-24T04:10:50.016Z,45580.09
2022-11-24T04:13:18.167Z,45576.09
2022-11-24T04:15:44.891Z,45558.09
2022-11-24T04:18:12.633Z,45578.09
2022-11-24T04:20:40.940Z,45560.09
2022-11-24T04:23:08.100Z,45562.09
2022-11-24T04:25:35.295Z,45556.09
2022-11-24T04:28:01.951Z,45554.09
2022-11-24T04:30:29.328Z,45570.09
2022-11-24T04:32:57.003Z,45566.09
2022-11-24T04:35:23.740Z,45544.13
2022-11-24T04:37:50.274Z,45570.09
2022-11-24T04:40:17.053Z,45554.09
2022-11-24T04:42:43.571Z,45566.09
2022-11-24T04:45:10.969Z,45556.09
2022-11-24T04:47:38.918Z,45566.09
2022-11-24T04:50:07.578Z,45550.13
2022-11-24T04:52:34.188Z,45558.09
2022-11-24T04:55:00.616Z,45566.09
2022-11-24T04:57:27.758Z,45540.13
2022-11-24T04:59:55.062Z,45552.13
2022-11-24T05:02:22.243Z,45562.09
2022-11-24T05:04:49.439Z,45574.09
2022-11-24T05:07:19.126Z,45562.09
2022-11-24T05:10:05.993Z,45548.13
2022-11-24T05:12:32.470Z,45570.09
2022-11-24T05:15:00.273Z,45546.13
2022-11-24T05:17:34.940Z,45554.09
2022-11-24T05:20:01.659Z,45552.13
2022-11-24T05:22:29.465Z,45542.13
2022-11-24T05:24:55.981Z,45548.13
2022-11-24T05:27:22.524Z,45554.09
2022-11-24T05:29:49.052Z,45558.09
2022-11-24T05:32:15.431Z,45578.09
2022-11-24T05:34:41.822Z,45538.13
2022-11-24T05:37:08.338Z,45562.09
2022-11-24T05:39:36.064Z,45558.09
2022-11-24T05:42:22.743Z,45544.13
2022-11-24T05:44:49.147Z,45558.09
2022-11-24T05:47:15.561Z,45554.09
2022-11-24T05:49:42.055Z,45552.13
2022-11-24T05:52:08.810Z,45582.09
2022-11-24T05:54:35.430Z,45558.09
2022-11-24T05:57:02.076Z,45562.09
2022-11-24T05:59:28.651Z,45564.09
2022-11-24T06:01:55.152Z,45556.09
2022-11-24T06:04:21.896Z,45530.13
2022-11-24T06:06:48.409Z,45566.09
2022-11-24T06:09:14.808Z,45544.13
2022-11-24T06:11:41.195Z,45546.13
2022-11-24T06:14:11.090Z,45564.09
2022-11-24T06:16:38.097Z,45570.09
2022-11-24T06:19:04.786Z,45558.09
2022-11-24T06:21:31.710Z,45578.09
2022-11-24T06:23:59.460Z,45550.13
2022-11-24T06:26:25.849Z,45568.09
2022-11-24T06:28:52.219Z,45550.13
2022-11-24T06:31:18.894Z,45554.09
2022-11-24T06:33:45.618Z,45560.09
2022-11-24T06:36:14.103Z,45538.13
2022-11-24T06:38:40.690Z,45566.09
2022-11-24T06:41:11.438Z,45566.09
2022-11-24T06:43:38.278Z,45570.09
2022-11-24T06:46:04.934Z,45562.09
2022-11-24T06:48:31.695Z,45570.09
2022-11-24T06:50:59.875Z,45546.13
2022-11-24T06:53:26.301Z,45556.09
2022-11-24T06:55:53.335Z,45568.09
2022-11-24T06:58:19.729Z,45552.13
2022-11-24T07:00:46.204Z,45558.09
2022-11-24T07:03:17.083Z,45572.09
2022-11-24T07:05:43.942Z,45586.09
2022-11-24T07:08:16.152Z,45564.09
2022-11-24T07:10:44.155Z,45558.09
2022-11-24T07:13:10.614Z,45566.09
2022-11-24T07:15:37.012Z,45560.09
2022-11-24T07:18:03.541Z,45562.09
2022-11-24T07:20:29.995Z,45554.09
2022-11-24T07:22:57.821Z,45560.09
2022-11-24T07:25:27.269Z,45550.13
2022-11-24T07:28:00.227Z,45560.09
2022-11-24T07:30:28.180Z,45564.09
2022-11-24T07:33:02.063Z,45538.13
2022-11-24T07:35:29.153Z,45566.09
2022-11-24T07:37:56.837Z,45582.09
2022-11-24T07:40:25.084Z,45550.13
2022-11-24T07:42:51.739Z,45558.09
2022-11-24T07:45:18.164Z,45534.13
2022-11-24T07:47:44.573Z,45558.09
2022-11-24T07:50:12.599Z,45556.09
2022-11-24T07:52:40.421Z,45570.09
2022-11-24T07:55:08.015Z,45554.09
2022-11-24T07:57:34.859Z,45554.09
2022-11-24T08:00:01.558Z,45554.09
2022-11-24T08:02:31.256Z,45550.13
2022-11-24T08:04:57.678Z,45538.13
2022-11-24T08:07:24.336Z,45570.09
2022-11-24T08:09:52.024Z,45544.13
2022-11-24T08:12:21.700Z,45554.09
2022-11-24T08:14:51.332Z,45566.09
2022-11-24T08:17:18.066Z,45562.09
2022-11-24T08:19:44.475Z,45554.09
2022-11-24T08:22:11.301Z,45546.13
2022-11-24T08:24:38.130Z,45536.13
2022-11-24T08:27:04.518Z,45564.09
2022-11-24T08:29:32.152Z,45558.09
2022-11-24T08:31:58.766Z,45556.09
2022-11-24T08:34:27.068Z,45550.13
2022-11-24T08:36:53.595Z,45550.13
2022-11-24T08:39:20.269Z,45542.13
2022-11-24T08:41:46.640Z,45574.09
2022-11-24T08:44:15.773Z,45560.09
2022-11-24T08:46:42.187Z,45568.09
2022-11-24T08:49:09.893Z,45560.09
2022-11-24T08:51:37.015Z,45550.13
2022-11-24T08:54:03.958Z,45554.09
2022-11-24T08:56:32.077Z,45538.13
2022-11-24T08:58:59.058Z,45560.09
2022-11-24T09:01:26.759Z,45554.09
2022-11-24T09:03:53.643Z,45558.09
2022-11-24T09:06:23.355Z,45546.13
2022-11-24T09:08:49.930Z,45562.09
2022-11-24T09:11:17.534Z,45550.13
2022-11-24T09:13:44.638Z,45524.13
2022-11-24T09:16:14.293Z,45582.09
2022-11-24T09:18:41.122Z,45542.13
2022-11-24T09:21:16.009Z,45542.13
2022-11-24T09:23:43.278Z,45518.13
2022-11-24T09:26:15.994Z,45534.13
2022-11-24T09:28:42.929Z,45538.13
2022-11-24T09:31:14.589Z,45524.13
2022-11-24T09:33:41.370Z,45544.13
2022-11-24T09:36:08.366Z,45528.13
2022-11-24T09:38:34.975Z,45550.13
2022-11-24T09:41:55.777Z,45552.13
2022-11-24T09:45:01.739Z,45514.13
2022-11-24T09:47:34.775Z,45534.13
2022-11-24T09:50:15.751Z,45526.13
2022-11-24T09:52:51.771Z,45542.13
2022-11-24T09:55:51.815Z,45524.13
2022-11-24T09:58:27.389Z,45524.13
2022-11-24T10:00:55.877Z,45546.13
2022-11-24T10:03:28.202Z,45544.13
2022-11-24T10:05:55.414Z,45530.13
2022-11-24T10:08:24.472Z,45546.13
2022-11-24T10:10:57.527Z,45546.13
2022-11-24T10:13:37.106Z,45542.13
2022-11-24T10:16:06.316Z,45526.13
2022-11-24T10:19:07.323Z,45514.13
2022-11-24T10:22:12.307Z,45542.13
2022-11-24T10:25:12.302Z,45544.13
2022-11-24T10:27:44.632Z,45526.13
2022-11-24T10:30:18.224Z,45542.13
2022-11-24T10:33:12.201Z,45540.13
2022-11-24T10:35:55.613Z,45514.13
2022-11-24T10:38:22.185Z,45510.16
2022-11-24T10:40:57.529Z,45516.13
2022-11-24T10:43:28.823Z,45502.16
2022-11-24T10:46:05.309Z,45514.13
2022-11-24T10:48:40.663Z,45524.13
2022-11-24T10:51:34.750Z,45498.16
2022-11-24T10:54:05.722Z,45496.16
2022-11-24T10:56:41.246Z,45522.13
2022-11-24T10:59:37.996Z,45500.16
2022-11-24T11:02:35.255Z,45510.16
2022-11-24T11:05:37.894Z,45526.13
2022-11-24T11:08:13.944Z,45502.16
2022-11-24T11:10:42.169Z,45502.16
2022-11-24T11:13:28.420Z,45482.16
2022-11-24T11:15:58.235Z,45490.16
2022-11-24T11:18:33.280Z,45502.16
2022-11-24T11:21:02.344Z,45478.16
2022-11-24T11:23:32.206Z,45484.16
2022-11-24T11:26:23.536Z,45480.16
2022-11-24T11:34:49.552Z,45462.19
2022-11-24T11:37:17.003Z,45450.19
2022-11-24T11:39:49.111Z,45462.19
2022-11-24T11:45:26.447Z,45442.19
2022-11-24T11:48:02.698Z,45430.22
2022-11-24T11:51:06.799Z,45438.19
2022-11-24T11:54:00.727Z,45442.19
2022-11-24T11:56:32.874Z,45442.19
2022-11-24T11:59:11.446Z,45438.19
2022-11-24T12:02:15.411Z,45422.22
2022-11-24T12:04:52.796Z,45434.19
2022-11-24T12:07:22.311Z,45422.22
2022-11-24T12:10:01.485Z,45406.22
2022-11-24T12:12:45.114Z,45410.22
2022-11-24T12:15:30.136Z,45394.22
2022-11-24T12:18:40.171Z,45406.22
2022-11-24T12:21:23.083Z,45402.22
2022-11-24T12:23:52.760Z,45398.22
2022-11-24T12:26:24.646Z,45386.25
2022-11-24T12:28:53.782Z,45398.22
2022-11-24T12:31:32.749Z,45398.22
2022-11-24T12:34:04.679Z,45382.25
2022-11-24T12:36:44.917Z,45378.25
2022-11-24T12:39:21.347Z,45378.25
2022-11-24T12:42:06.409Z,45368.25
2022-11-24T12:45:06.040Z,45366.25
2022-11-24T12:47:54.082Z,45376.25
2022-11-24T12:50:29.404Z,45358.25
2022-11-24T12:53:13.568Z,45378.25
2022-11-24T12:55:42.041Z,45370.25
2022-11-24T12:58:32.493Z,45364.25
2022-11-24T13:01:14.678Z,45346.28
2022-11-24T13:04:06.975Z,45338.28
2022-11-24T13:06:52.197Z,45334.28
2022-11-24T13:09:19.299Z,45328.28
2022-11-24T13:11:53.100Z,45318.28
2022-11-24T13:14:28.622Z,45326.28
2022-11-24T13:19:49.978Z,45334.28
2022-11-24T13:22:24.469Z,45350.28
2022-11-24T13:25:28.711Z,45334.28
2022-11-24T13:27:57.530Z,45342.28
2022-11-24T13:30:35.800Z,45344.28
2022-11-24T13:33:16.213Z,45336.28
2022-11-24T13:36:29.666Z,45334.28
2022-11-24T13:38:56.109Z,45370.25
2022-11-24T13:41:31.245Z,45350.28
2022-11-24T13:44:16.305Z,45356.25
2022-11-24T13:47:01.782Z,45362.25
2022-11-24T13:49:46.319Z,45366.25
2022-11-24T13:52:34.638Z,45360.25
2022-11-24T13:55:07.218Z,45370.25
2022-11-24T13:57:38.791Z,45388.25
2022-11-24T14:00:19.199Z,45390.25
2022-11-24T14:02:46.519Z,45390.25
2022-11-24T14:05:17.749Z,45384.25
2022-11-24T14:07:45.690Z,45388.25
2022-11-24T14:10:36.009Z,45410.22
2022-11-24T14:13:25.459Z,45402.22
2022-11-24T14:16:17.227Z,45402.22
2022-11-24T14:18:48.917Z,45410.22
2022-11-24T14:21:22.065Z,45402.22
2022-11-24T14:23:54.820Z,45416.22
2022-11-24T14:26:32.175Z,45428.22
2022-11-24T14:29:15.551Z,45422.22
2022-11-24T14:31:51.581Z,45416.22
2022-11-24T14:34:21.092Z,45434.19
2022-11-24T14:36:49.123Z,45430.22
2022-11-24T14:39:22.856Z,45436.19
2022-11-24T14:42:10.076Z,45426.22
2022-11-24T14:44:45.534Z,45446.19
2022-11-24T14:47:24.515Z,45434.19
2022-11-24T14:49:54.503Z,45442.19
2022-11-24T14:52:23.374Z,45458.19
2022-11-24T14:55:17.346Z,45448.19
2022-11-24T14:57:47.422Z,45446.19
2022-11-24T15:00:17.290Z,45462.19
2022-11-24T15:02:51.767Z,45478.16
2022-11-24T15:05:23.926Z,45462.19
2022-11-24T15:07:59.861Z,45470.19
2022-11-24T15:10:35.215Z,45466.19
2022-11-24T15:13:04.050Z,45460.19
2022-11-24T15:15:33.416Z,45460.19
2022-11-24T15:18:01.582Z,45462.19
2022-11-24T15:20:35.019Z,45476.16
2022-11-24T15:23:20.177Z,45480.16
2022-11-24T15:25:46.625Z,45474.16
2022-11-24T15:28:13.024Z,45478.16
2022-11-24T15:30:39.506Z,45474.16
2022-11-24T15:33:17.880Z,45486.16
2022-11-24T15:35:45.308Z,45470.19
2022-11-24T15:38:12.072Z,45484.16
2022-11-24T15:40:40.029Z,45488.16
2022-11-24T15:43:17.217Z,45486.16
2022-11-24T15:45:44.014Z,45482.16
2022-11-24T15:48:13.548Z,45482.16
2022-11-24T15:50:44.779Z,45482.16
2022-11-24T15:53:20.046Z,45498.16
2022-11-24T15:55:47.627Z,45488.16
2022-11-24T15:58:14.747Z,45490.16
2022-11-24T16:00:42.187Z,45514.13
2022-11-24T16:03:44.274Z,45498.16
2022-11-24T16:05:57.013Z,45492.16
2022-11-24T16:08:23.585Z,45486.16
2022-11-24T16:10:50.016Z,45490.16
2022-11-24T16:13:16.499Z,45498.16
2022-11-24T16:15:42.970Z,45498.16
2022-11-24T16:18:09.386Z,45486.16
2022-11-24T16:20:36.217Z,45490.16
2022-11-24T16:23:04.118Z,45514.13
2022-11-24T16:25:31.242Z,45506.16
2022-11-24T16:27:57.832Z,45522.13
2022-11-24T16:30:24.524Z,45510.16
2022-11-24T16:32:50.918Z,45502.16
2022-11-24T16:35:17.589Z,45486.16
2022-11-24T16:37:44.546Z,45502.16
2022-11-24T16:40:11.361Z,45508.16
2022-11-24T16:42:37.808Z,45498.16
2022-11-24T16:45:05.321Z,45496.16
2022-11-24T16:47:31.772Z,45504.16
2022-11-24T16:49:58.156Z,45528.13
2022-11-24T16:52:25.738Z,45522.13
2022-11-24T16:54:52.098Z,45506.16
2022-11-24T16:57:18.495Z,45506.16
2022-11-24T16:59:46.302Z,45534.13
2022-11-24T17:02:13.436Z,45528.13
2022-11-24T17:04:40.111Z,45526.13
2022-11-24T17:07:07.649Z,45526.13
2022-11-24T17:09:40.167Z,45548.13
2022-11-24T17:12:07.293Z,45534.13
2022-11-24T17:14:34.628Z,45538.13
2022-11-24T17:17:01.301Z,45554.09
2022-11-24T17:19:28.398Z,45538.13
2022-11-24T17:21:54.916Z,45522.13
2022-11-24T17:24:21.414Z,45562.09
2022-11-24T17:26:50.138Z,45522.13
2022-11-24T17:29:16.739Z,45538.13
2022-11-24T17:31:43.216Z,45538.13
2022-11-24T17:34:11.109Z,45538.13
2022-11-24T17:36:38.401Z,45542.13
2022-11-24T17:39:06.978Z,45546.13
2022-11-24T17:41:33.809Z,45528.13
2022-11-24T17:44:00.443Z,45544.13
2022-11-24T17:46:28.526Z,45530.13
2022-11-24T17:48:55.542Z,45542.13
2022-11-24T17:51:24.312Z,45544.13
2022-11-24T17:53:52.243Z,45544.13
2022-11-24T17:56:22.872Z,45540.13
2022-11-24T17:58:54.138Z,45544.13
2022-11-24T18:01:21.174Z,45508.16
2022-11-24T18:03:53.152Z,45542.13
2022-11-24T18:06:21.152Z,45534.13
2022-11-24T18:08:48.272Z,45556.09
2022-11-24T18:11:23.563Z,45544.13
2022-11-24T18:13:59.976Z,45538.13
2022-11-24T18:16:29.760Z,45552.13
2022-11-24T18:19:07.764Z,45548.13
2022-11-24T18:21:37.583Z,45538.13
2022-11-24T18:24:04.086Z,45554.09
2022-11-24T18:26:30.621Z,45522.13
2022-11-24T18:28:57.034Z,45546.13
2022-11-24T18:31:23.473Z,45554.09
2022-11-24T18:33:49.908Z,45552.13
2022-11-24T18:36:18.904Z,45530.13
2022-11-24T18:38:45.588Z,45526.13
2022-11-24T18:41:14.138Z,45554.09
2022-11-24T18:43:41.087Z,45542.13
2022-11-24T18:46:11.230Z,45552.13
2022-11-24T18:48:37.885Z,45554.09
2022-11-24T18:51:04.834Z,45552.13
2022-11-24T18:53:31.537Z,45544.13
2022-11-24T18:55:59.995Z,45550.13
2022-11-24T18:58:28.692Z,45538.13
2022-11-24T19:01:07.988Z,45546.13
2022-11-24T19:03:41.344Z,45570.09
2022-11-24T19:06:14.167Z,45558.09
2022-11-24T19:08:40.679Z,45558.09
2022-11-24T19:11:07.297Z,45550.13
2022-11-24T19:13:33.722Z,45562.09
2022-11-24T19:16:01.226Z,45558.09
2022-11-24T19:18:30.823Z,45542.13
2022-11-24T19:20:58.082Z,45546.13
2022-11-24T19:23:24.587Z,45574.09
2022-11-24T19:25:50.973Z,45550.13
2022-11-24T19:28:17.375Z,45564.09
2022-11-24T19:30:45.240Z,45550.13
2022-11-24T19:33:11.819Z,45550.13
2022-11-24T19:35:38.175Z,45558.09
2022-11-24T19:38:04.579Z,45566.09
2022-11-24T19:40:30.985Z,45542.13
2022-11-24T19:42:57.587Z,45556.09
2022-11-24T19:45:23.987Z,45574.09
2022-11-24T19:47:50.430Z,45574.09
2022-11-24T19:50:16.822Z,45544.13
2022-11-24T19:52:43.211Z,45558.09
2022-11-24T19:55:09.796Z,45566.09
2022-11-24T19:57:36.215Z,45550.13
2022-11-24T20:00:02.769Z,45566.09
2022-11-24T20:02:31.582Z,45554.09
2022-11-24T20:04:58.106Z,45540.13
2022-11-24T20:07:24.572Z,45576.09
2022-11-24T20:09:50.963Z,45548.13
2022-11-24T20:12:17.351Z,45576.09
2022-11-24T20:14:43.728Z,45566.09
2022-11-24T20:17:10.165Z,45562.09
2022-11-24T20:19:36.583Z,45558.09
2022-11-24T20:22:03.097Z,45554.09
2022-11-24T20:24:29.476Z,45572.09
2022-11-24T20:26:58.149Z,45564.09
2022-11-24T20:29:24.668Z,45562.09
2022-11-24T20:31:55.428Z,45566.09
2022-11-24T20:34:23.164Z,45570.09
2022-11-24T20:36:49.939Z,45544.13
2022-11-24T20:39:20.702Z,45556.09
2022-11-24T20:41:47.212Z,45570.09
2022-11-24T20:44:16.273Z,45570.09
2022-11-24T20:46:44.763Z,45570.09
2022-11-24T20:49:14.877Z,45574.09
2022-11-24T20:51:44.058Z,45562.09
2022-11-24T20:54:12.801Z,45584.09
2022-11-24T20:56:42.158Z,45568.09
2022-11-24T20:59:12.086Z,45574.09
2022-11-24T21:01:40.775Z,45582.09
2022-11-24T21:04:09.901Z,45562.09
2022-11-24T21:06:36.883Z,45562.09
2022-11-24T21:09:04.491Z,45558.09
2022-11-24T21:11:31.686Z,45582.09
2022-11-24T21:13:59.152Z,45578.09
2022-11-24T21:16:28.251Z,45566.09
2022-11-24T21:18:57.243Z,45566.09
2022-11-24T21:21:24.979Z,45614.06
2022-11-24T21:23:51.753Z,45548.13
2022-11-24T21:26:19.082Z,45568.09
2022-11-24T21:28:47.194Z,45582.09
2022-11-24T21:31:16.416Z,45572.09
2022-11-24T21:33:45.357Z,45550.13
2022-11-24T21:36:14.552Z,45578.09
2022-11-24T21:38:42.621Z,45568.09
2022-11-24T21:41:11.682Z,45566.09
2022-11-24T21:43:38.532Z,45566.09
2022-11-24T21:46:07.024Z,45566.09
2022-11-24T21:48:34.711Z,45570.09
2022-11-24T21:51:03.869Z,45582.09
2022-11-24T21:53:32.739Z,45562.09
2022-11-24T21:56:01.974Z,45570.09
2022-11-24T21:58:29.069Z,45570.09
2022-11-24T22:01:01.719Z,45562.09
2022-11-24T22:03:28.244Z,45576.09
2022-11-24T22:05:56.431Z,45584.09
2022-11-24T22:08:24.091Z,45568.09
2022-11-24T22:10:50.663Z,45594.09
2022-11-24T22:13:17.538Z,45558.09
2022-11-24T22:15:43.992Z,45578.09
2022-11-24T22:18:10.618Z,45550.13
2022-11-24T22:20:37.057Z,45570.09
2022-11-24T22:23:03.485Z,45572.09
2022-11-24T22:25:30.020Z,45570.09
2022-11-24T22:27:57.877Z,45562.09
2022-11-24T22:30:24.293Z,45566.09
2022-11-24T22:32:50.662Z,45578.09
2022-11-24T22:35:17.031Z,45566.09
2022-11-24T22:37:43.420Z,45586.09
2022-11-24T22:40:10.012Z,45570.09
2022-11-24T22:42:36.385Z,45574.09
2022-11-24T22:45:02.830Z,45568.09
2022-11-24T22:47:29.191Z,45566.09
2022-11-24T22:49:55.554Z,45558.09
2022-11-24T22:52:21.921Z,45542.13
2022-11-24T22:54:48.292Z,45558.09
2022-11-24T22:57:14.658Z,45564.09
2022-11-24T22:59:41.026Z,45566.09
2022-11-24T23:02:07.407Z,45566.09
2022-11-24T23:04:34.191Z,45554.09
2022-11-24T23:07:00.751Z,45566.09
2022-11-24T23:09:27.268Z,45566.09
2022-11-24T23:11:53.638Z,45560.09
2022-11-24T23:14:20.147Z,45574.09
2022-11-24T23:16:46.568Z,45602.06
2022-11-24T23:19:12.969Z,45564.09
2022-11-24T23:21:39.451Z,45558.09
2022-11-24T23:24:07.317Z,45566.09
2022-11-24T23:26:37.115Z,45548.13
2022-11-24T23:29:04.695Z,45574.09
2022-11-24T23:31:31.505Z,45566.09
2022-11-24T23:33:59.482Z,45556.09
2022-11-24T23:36:27.188Z,45558.09
2022-11-24T23:38:54.297Z,45554.09
2022-11-24T23:41:25.436Z,45570.09
2022-11-24T23:43:52.697Z,45560.09
2022-11-24T23:46:21.628Z,45564.09
2022-11-24T23:48:49.425Z,45564.09
2022-11-24T23:51:24.613Z,45574.09
2022-11-24T23:53:51.815Z,45546.13
2022-11-24T23:56:32.218Z,45566.09
2022-11-24T23:58:59.392Z,45572.09
